createdAt,value
2018-11-10T00:00:39.731Z,15.97
2018-11-10T00:03:56.001Z,15.67
2018-11-10T00:07:12.655Z,15.63
2018-11-10T00:10:31.971Z,15.00
2018-11-10T00:13:47.659Z,14.77
2018-11-10T00:17:04.056Z,16.53
2018-11-10T00:20:20.020Z,14.70
2018-11-10T00:23:47.329Z,15.40
2018-11-10T00:27:13.379Z,15.30
2018-11-10T00:30:28.041Z,16.50
2018-11-10T00:33:44.506Z,15.80
2018-11-10T00:37:01.148Z,15.93
2018-11-10T00:40:25.008Z,16.50
2018-11-10T00:44:07.324Z,16.07
2018-11-10T00:47:23.174Z,15.40
2018-11-10T00:50:38.866Z,15.37
2018-11-10T00:53:58.401Z,15.53
2018-11-10T00:57:03.250Z,15.77
2018-11-10T01:00:41.091Z,16.10
2018-11-10T01:04:02.571Z,16.13
2018-11-10T01:07:06.700Z,16.13
2018-11-10T01:10:22.442Z,16.20
2018-11-10T01:13:40.204Z,16.27
2018-11-10T01:16:47.136Z,17.13
2018-11-10T01:20:10.982Z,17.30
2018-11-10T01:23:15.874Z,15.47
2018-11-10T01:26:39.605Z,16.93
2018-11-10T01:29:55.477Z,16.10
2018-11-10T01:33:11.516Z,16.27
2018-11-10T01:36:27.201Z,16.77
2018-11-10T01:39:45.887Z,17.37
2018-11-10T01:42:59.915Z,16.53
2018-11-10T01:46:16.310Z,15.27
2018-11-10T01:49:32.214Z,15.57
2018-11-10T01:52:58.105Z,15.47
2018-11-10T01:56:14.744Z,15.57
2018-11-10T01:59:19.580Z,15.07
2018-11-10T02:02:36.081Z,15.13
2018-11-10T02:05:41.987Z,15.00
2018-11-10T02:08:45.861Z,15.23
2018-11-10T02:11:50.869Z,15.73
2018-11-10T02:14:55.704Z,15.40
2018-11-10T02:18:19.425Z,15.83
2018-11-10T02:21:35.771Z,15.23
2018-11-10T02:24:40.592Z,15.43
2018-11-10T02:27:46.118Z,15.17
2018-11-10T02:31:09.959Z,15.53
2018-11-10T02:34:15.101Z,14.53
2018-11-10T02:40:56.315Z,16.30
2018-11-10T02:44:12.185Z,15.50
2018-11-10T02:47:28.870Z,14.90
2018-11-10T02:50:45.386Z,15.73
2018-11-10T02:53:50.341Z,16.67
2018-11-10T02:57:14.047Z,15.80
2018-11-10T03:00:29.795Z,16.00
2018-11-10T03:03:45.486Z,16.90
2018-11-10T03:06:50.396Z,14.80
2018-11-10T03:10:14.193Z,15.77
2018-11-10T03:13:30.101Z,16.17
2018-11-10T03:16:46.803Z,15.10
2018-11-10T03:20:02.477Z,15.27
2018-11-10T03:23:18.951Z,15.10
2018-11-10T03:26:35.619Z,16.97
2018-11-10T03:29:51.455Z,16.10
2018-11-10T03:33:07.145Z,16.80
2018-11-10T03:36:12.051Z,15.50
2018-11-10T03:39:47.390Z,16.57
2018-11-10T03:43:11.075Z,17.00
2018-11-10T03:46:15.947Z,15.77
2018-11-10T03:49:31.568Z,15.43
2018-11-10T03:52:36.482Z,14.60
2018-11-10T03:55:41.362Z,16.40
2018-11-10T03:58:46.251Z,17.70
2018-11-10T04:05:37.932Z,16.70
2018-11-10T04:08:41.930Z,16.17
2018-11-10T04:11:58.700Z,15.43
2018-11-10T04:15:14.431Z,16.70
2018-11-10T04:18:30.097Z,14.97
2018-11-10T04:21:35.104Z,16.50
2018-11-10T04:24:40.002Z,16.30
2018-11-10T04:27:44.805Z,16.07
2018-11-10T04:31:22.508Z,15.00
2018-11-10T04:34:32.201Z,15.87
2018-11-10T04:37:48.906Z,15.80
2018-11-10T04:41:12.596Z,16.37
2018-11-10T04:44:28.896Z,14.63
2018-11-10T04:47:44.581Z,16.10
2018-11-10T04:51:00.463Z,16.50
2018-11-10T04:54:17.143Z,16.03
2018-11-10T04:57:32.917Z,16.30
2018-11-10T05:00:48.607Z,15.20
2018-11-10T05:04:04.461Z,15.80
2018-11-10T05:07:09.423Z,16.23
2018-11-10T05:10:14.292Z,15.80
2018-11-10T05:13:49.821Z,15.70
2018-11-10T05:16:54.681Z,16.07
2018-11-10T05:20:10.316Z,16.30
2018-11-10T05:23:15.165Z,15.33
2018-11-10T05:26:20.042Z,14.93
2018-11-10T05:29:43.782Z,14.60
2018-11-10T05:33:07.532Z,14.03
2018-11-10T05:36:12.472Z,14.53
2018-11-10T05:39:36.195Z,14.30
2018-11-10T05:42:41.458Z,14.03
2018-11-10T05:45:46.276Z,14.33
2018-11-10T05:49:10.002Z,14.57
2018-11-10T05:52:15.271Z,15.20
2018-11-10T05:55:38.961Z,14.70
2018-11-10T05:59:02.649Z,14.30
2018-11-10T06:02:18.974Z,15.00
2018-11-10T06:05:34.785Z,14.60
2018-11-10T06:08:51.508Z,14.87
2018-11-10T06:12:03.406Z,15.30
2018-11-10T06:15:08.981Z,15.37
2018-11-10T06:18:44.565Z,15.47
2018-11-10T06:21:48.500Z,14.70
2018-11-10T06:25:04.766Z,14.83
2018-11-10T06:28:21.218Z,14.30
2018-11-10T06:31:37.308Z,14.73
2018-11-10T06:34:42.218Z,15.30
2018-11-10T06:37:47.061Z,14.40
2018-11-10T06:40:51.983Z,15.30
2018-11-10T06:44:15.683Z,15.40
2018-11-10T06:47:40.011Z,14.97
2018-11-10T06:50:44.915Z,14.73
2018-11-10T06:54:10.688Z,14.17
2018-11-10T06:57:48.773Z,13.90
2018-11-10T07:00:50.341Z,14.70
2018-11-10T07:04:06.669Z,14.63
2018-11-10T07:07:22.738Z,12.10
2018-11-10T07:10:39.282Z,11.77
2018-11-10T07:13:51.361Z,12.00
2018-11-10T07:17:07.938Z,11.00
2018-11-10T07:20:23.760Z,11.00
2018-11-10T07:23:39.422Z,10.97
2018-11-10T07:26:55.189Z,11.10
2018-11-10T07:30:12.573Z,10.80
2018-11-10T07:33:36.049Z,11.10
2018-11-10T07:37:18.778Z,12.53
2018-11-10T07:40:39.841Z,13.30
2018-11-10T07:43:59.327Z,14.60
2018-11-10T07:47:15.792Z,14.27
2018-11-10T07:50:32.058Z,13.97
2018-11-10T07:53:49.352Z,13.23
2018-11-10T07:56:54.240Z,14.37
2018-11-10T08:00:18.937Z,14.07
2018-11-10T08:03:34.926Z,13.37
2018-11-10T08:06:39.792Z,13.50
2018-11-10T08:10:25.018Z,13.27
2018-11-10T08:13:29.808Z,12.83
2018-11-10T08:16:53.535Z,12.80
2018-11-10T08:20:17.267Z,13.10
2018-11-10T08:23:33.122Z,13.40
2018-11-10T08:26:49.387Z,14.03
2018-11-10T08:30:05.167Z,13.70
2018-11-10T08:33:21.640Z,13.20
2018-11-10T08:36:26.539Z,13.87
2018-11-10T08:39:49.999Z,14.57
2018-11-10T08:43:13.696Z,13.60
2018-11-10T08:46:29.796Z,13.90
2018-11-10T08:49:46.313Z,13.03
2018-11-10T08:53:04.552Z,13.00
2018-11-10T08:56:20.362Z,14.53
2018-11-10T08:59:37.017Z,12.57
2018-11-10T09:02:53.614Z,13.17
2018-11-10T09:06:09.341Z,13.70
2018-11-10T09:12:37.922Z,13.47
2018-11-10T09:15:53.884Z,13.10
2018-11-10T09:19:09.667Z,11.87
2018-11-10T09:22:25.397Z,12.60
2018-11-10T09:25:41.313Z,14.30
2018-11-10T09:28:57.711Z,13.33
2018-11-10T09:32:21.209Z,13.80
2018-11-10T09:35:26.044Z,14.57
2018-11-10T09:38:49.830Z,14.57
2018-11-10T09:42:13.939Z,13.77
2018-11-10T09:45:19.011Z,14.53
2018-11-10T09:48:42.804Z,13.73
2018-11-10T09:51:58.779Z,13.70
2018-11-10T09:55:15.303Z,13.67
2018-11-10T09:58:20.244Z,14.90
2018-11-10T10:01:44.224Z,14.70
2018-11-10T10:04:48.863Z,13.47
2018-11-10T10:08:12.589Z,15.27
2018-11-10T10:11:29.149Z,12.90
2018-11-10T10:14:45.003Z,13.77
2018-11-10T10:18:00.856Z,14.50
2018-11-10T10:21:16.949Z,13.20
2018-11-10T10:24:32.929Z,12.70
2018-11-10T10:27:50.275Z,13.77
2018-11-10T10:31:06.469Z,13.57
2018-11-10T10:34:22.993Z,13.80
2018-11-10T10:37:38.861Z,14.53
2018-11-10T10:40:55.178Z,13.33
2018-11-10T10:44:11.520Z,12.37
2018-11-10T10:47:27.859Z,13.53
2018-11-10T10:50:43.972Z,12.27
2018-11-10T10:54:00.579Z,13.20
2018-11-10T10:57:05.476Z,12.30
2018-11-10T11:00:30.379Z,12.40
2018-11-10T11:04:12.691Z,13.83
2018-11-10T11:10:41.335Z,13.40
2018-11-10T11:14:05.043Z,13.30
2018-11-10T11:17:21.653Z,13.63
2018-11-10T11:20:37.445Z,12.60
2018-11-10T11:23:53.369Z,13.20
2018-11-10T11:27:09.555Z,12.60
2018-11-10T11:30:26.090Z,12.90
2018-11-10T11:33:30.968Z,13.50
2018-11-10T11:36:54.743Z,13.57
2018-11-10T11:40:18.430Z,12.83
2018-11-10T11:43:34.881Z,13.40
2018-11-10T11:46:51.342Z,15.07
2018-11-10T11:50:07.014Z,13.50
2018-11-10T11:53:23.070Z,13.90
2018-11-10T11:56:39.697Z,15.90
2018-11-10T11:59:56.408Z,14.57
2018-11-10T12:03:12.139Z,13.43
2018-11-10T12:06:28.620Z,14.00
2018-11-10T12:09:45.149Z,14.40
2018-11-10T12:12:57.215Z,15.00
2018-11-10T12:16:13.587Z,14.10
2018-11-10T12:19:29.505Z,14.47
2018-11-10T12:22:46.126Z,14.13
2018-11-10T12:26:02.180Z,14.33
2018-11-10T12:29:18.745Z,14.50
2018-11-10T12:32:35.126Z,14.70
2018-11-10T12:35:51.649Z,15.00
2018-11-10T12:38:56.558Z,15.30
2018-11-10T12:42:31.914Z,15.90
2018-11-10T12:45:58.179Z,15.93
2018-11-10T12:48:59.893Z,13.90
2018-11-10T12:52:15.684Z,14.97
2018-11-10T12:55:31.425Z,14.00
2018-11-10T12:58:47.844Z,16.00
2018-11-10T13:02:03.775Z,13.90
2018-11-10T13:05:09.819Z,14.83
2018-11-10T13:08:14.933Z,14.70
2018-11-10T13:11:31.299Z,14.30
2018-11-10T13:14:43.420Z,13.73
2018-11-10T13:17:59.877Z,13.90
2018-11-10T13:21:16.065Z,13.63
2018-11-10T13:24:20.958Z,14.80
2018-11-10T13:27:44.700Z,14.13
2018-11-10T13:31:00.487Z,14.60
2018-11-10T13:34:16.144Z,13.73
2018-11-10T13:37:32.369Z,13.23
2018-11-10T13:40:49.079Z,13.10
2018-11-10T13:44:05.007Z,13.30
2018-11-10T13:47:21.029Z,13.90
2018-11-10T13:50:37.002Z,13.40
2018-11-10T13:53:52.922Z,13.67
2018-11-10T13:57:08.837Z,14.03
2018-11-10T14:00:24.580Z,13.10
2018-11-10T14:03:40.409Z,14.40
2018-11-10T14:06:45.348Z,14.63
2018-11-10T14:10:10.224Z,12.90
2018-11-10T14:13:25.992Z,11.80
2018-11-10T14:16:41.869Z,13.10
2018-11-10T14:19:57.684Z,12.83
2018-11-10T14:23:13.420Z,12.17
2018-11-10T14:26:29.918Z,12.20
2018-11-10T14:29:34.676Z,12.47
2018-11-10T14:32:40.142Z,13.37
2018-11-10T14:36:03.904Z,12.47
2018-11-10T14:39:27.594Z,12.27
2018-11-10T14:42:44.373Z,12.90
2018-11-10T14:45:37.405Z,13.07
2018-11-10T14:48:42.348Z,11.87
2018-11-10T14:52:06.341Z,12.33
2018-11-10T14:55:12.129Z,11.60
2018-11-10T14:58:35.985Z,11.70
2018-11-10T15:01:59.677Z,11.67
2018-11-10T15:05:15.469Z,12.10
2018-11-10T15:08:31.049Z,12.50
2018-11-10T15:11:47.808Z,12.63
2018-11-10T15:14:52.652Z,11.70
2018-11-10T15:18:16.410Z,12.53
2018-11-10T15:21:32.945Z,12.03
2018-11-10T15:24:37.838Z,9.77
2018-11-10T15:27:42.782Z,11.90
2018-11-10T15:31:18.164Z,11.47
2018-11-10T15:34:23.088Z,11.83
2018-11-10T15:37:39.592Z,11.33
2018-11-10T15:40:56.050Z,11.80
2018-11-10T15:44:11.905Z,10.77
2018-11-10T15:47:16.834Z,11.23
2018-11-10T15:50:40.625Z,10.40
2018-11-10T15:54:04.291Z,10.90
2018-11-10T15:57:20.617Z,10.70
2018-11-10T16:00:37.293Z,11.70
2018-11-10T16:03:53.493Z,10.57
2018-11-10T16:07:09.269Z,9.73
2018-11-10T16:10:25.126Z,10.10
2018-11-10T16:13:41.145Z,10.47
2018-11-10T16:16:46.009Z,10.40
2018-11-10T16:20:25.308Z,10.40
2018-11-10T16:23:26.674Z,10.20
2018-11-10T16:26:42.601Z,10.97
2018-11-10T16:29:58.980Z,9.70
2018-11-10T16:33:03.765Z,10.47
2018-11-10T16:36:29.909Z,11.30
2018-11-10T16:39:34.790Z,10.03
2018-11-10T16:42:39.684Z,9.63
2018-11-10T16:46:03.401Z,11.20
2018-11-10T16:49:19.407Z,9.77
2018-11-10T16:52:35.583Z,9.80
2018-11-10T16:55:40.547Z,10.00
2018-11-10T16:59:04.348Z,10.50
2018-11-10T17:02:28.041Z,9.50
2018-11-10T17:05:43.995Z,10.23
2018-11-10T17:08:48.920Z,10.20
2018-11-10T17:12:12.524Z,9.37
2018-11-10T17:15:17.433Z,9.13
2018-11-10T17:18:22.335Z,10.37
2018-11-10T17:21:32.106Z,9.80
2018-11-10T17:24:36.846Z,9.87
2018-11-10T17:28:00.640Z,9.50
2018-11-10T17:31:26.665Z,10.20
2018-11-10T17:34:43.069Z,10.33
2018-11-10T17:37:59.119Z,10.27
2018-11-10T17:41:04.068Z,8.93
2018-11-10T17:44:27.538Z,10.70
2018-11-10T17:47:51.313Z,11.07
2018-11-10T17:51:07.550Z,9.27
2018-11-10T17:54:23.272Z,10.90
2018-11-10T17:57:39.308Z,9.80
2018-11-10T18:00:55.158Z,9.87
2018-11-10T18:04:11.538Z,10.50
2018-11-10T18:07:27.206Z,10.03
2018-11-10T18:10:43.823Z,10.40
2018-11-10T18:13:48.730Z,10.60
2018-11-10T18:17:26.474Z,10.73
2018-11-10T18:20:36.204Z,10.10
2018-11-10T18:23:51.883Z,9.93
2018-11-10T18:27:07.600Z,9.17
2018-11-10T18:30:24.192Z,9.90
2018-11-10T18:33:39.910Z,9.00
2018-11-10T18:36:57.930Z,9.60
2018-11-10T18:40:14.236Z,8.70
2018-11-10T18:43:21.761Z,11.00
2018-11-10T18:46:45.548Z,9.90
2018-11-10T18:50:10.060Z,9.90
2018-11-10T18:53:26.914Z,10.20
2018-11-10T18:56:19.809Z,9.53
2018-11-10T18:59:43.661Z,9.30
2018-11-10T19:02:59.344Z,10.90
2018-11-10T19:06:04.226Z,9.77
2018-11-10T19:09:27.929Z,10.30
2018-11-10T19:12:51.728Z,10.10
2018-11-10T19:15:56.560Z,9.20
2018-11-10T19:19:32.153Z,10.00
2018-11-10T19:22:44.171Z,10.97
2018-11-10T19:26:07.867Z,9.40
2018-11-10T19:29:31.591Z,9.70
2018-11-10T19:36:04.529Z,9.53
2018-11-10T19:39:20.855Z,10.27
2018-11-10T19:42:37.270Z,9.70
2018-11-10T19:45:53.316Z,10.53
2018-11-10T19:48:58.210Z,10.40
2018-11-10T19:52:17.761Z,10.10
2018-11-10T19:55:26.817Z,9.30
2018-11-10T19:58:50.705Z,9.17
2018-11-10T20:02:07.091Z,9.57
2018-11-10T20:05:23.667Z,9.53
2018-11-10T20:08:40.531Z,9.60
2018-11-10T20:11:56.216Z,8.80
2018-11-10T20:15:13.265Z,9.87
2018-11-10T20:18:29.646Z,9.43
2018-11-10T20:21:46.285Z,9.83
2018-11-10T20:25:02.988Z,9.70
2018-11-10T20:28:18.704Z,9.10
2018-11-10T20:31:34.449Z,9.77
2018-11-10T20:34:50.238Z,9.77
2018-11-10T20:38:06.175Z,9.50
2018-11-10T20:41:22.077Z,9.67
2018-11-10T20:44:37.966Z,9.47
2018-11-10T20:47:53.846Z,9.07
2018-11-10T20:51:10.390Z,8.93
2018-11-10T20:54:26.103Z,8.50
2018-11-10T20:57:42.121Z,9.33
2018-11-10T21:00:58.746Z,9.07
2018-11-10T21:04:15.184Z,8.30
2018-11-10T21:07:31.109Z,9.27
2018-11-10T21:10:36.122Z,9.03
2018-11-10T21:13:41.028Z,9.50
2018-11-10T21:16:45.902Z,9.10
2018-11-10T21:20:10.722Z,9.73
2018-11-10T21:23:34.426Z,10.03
2018-11-10T21:26:50.424Z,9.87
2018-11-10T21:30:07.227Z,9.77
2018-11-10T21:33:22.886Z,9.30
2018-11-10T21:36:46.684Z,9.50
2018-11-10T21:40:12.531Z,9.63
2018-11-10T21:43:28.334Z,9.60
2018-11-10T21:46:44.676Z,9.20
2018-11-10T21:49:49.986Z,9.57
2018-11-10T21:53:13.586Z,8.93
2018-11-10T21:56:18.500Z,10.80
2018-11-10T21:59:42.550Z,9.47
2018-11-10T22:02:58.686Z,9.77
2018-11-10T22:06:15.151Z,9.00
2018-11-10T22:09:20.237Z,8.77
2018-11-10T22:12:25.323Z,9.07
2018-11-10T22:15:49.071Z,8.70
2018-11-10T22:19:12.686Z,9.77
2018-11-10T22:22:28.956Z,8.70
2018-11-10T22:25:34.160Z,9.07
2018-11-10T22:28:58.063Z,9.07
2018-11-10T22:32:02.871Z,7.83
2018-11-10T22:35:26.567Z,8.90
2018-11-10T22:38:42.410Z,8.00
2018-11-10T22:41:58.189Z,8.67
2018-11-10T22:45:15.959Z,9.00
2018-11-10T22:48:20.816Z,8.30
2018-11-10T22:51:25.706Z,8.77
2018-11-10T22:54:30.511Z,8.00
2018-11-10T22:57:54.226Z,8.27
2018-11-10T23:01:10.848Z,7.60
2018-11-10T23:04:15.659Z,8.57
2018-11-10T23:07:39.457Z,8.83
2018-11-10T23:10:44.320Z,8.07
2018-11-10T23:14:08.113Z,7.03
2018-11-10T23:17:24.578Z,7.43
2018-11-10T23:20:41.062Z,7.67
2018-11-10T23:23:59.501Z,6.97
2018-11-10T23:27:15.465Z,7.00
2018-11-10T23:30:38.901Z,7.60
2018-11-10T23:34:02.613Z,6.87
2018-11-10T23:37:19.106Z,6.23
2018-11-10T23:40:23.896Z,5.30
2018-11-10T23:43:47.540Z,5.17
2018-11-10T23:47:03.602Z,5.60
2018-11-10T23:50:19.518Z,4.83
2018-11-10T23:53:35.355Z,5.00
2018-11-10T23:56:51.856Z,4.73
